Time;durP1;ratioP1;P1;durP2;ratioP2;P2;SDS_P1;SDS_P2;PMS_P1;PMS_P2;Temp;Humidity;BMP_temperature;BMP_pressure;BME280_temperature;BME280_humidity;BME280_pressure;Samples;Min_cycle;Max_cycle;Signal;HPM_P1;HPM_P2
2023/10/22 00:01:26;;;;;;;11.57;10.17;;;12.90;99.90;;;;;;5077154;28;20194;-63
2023/10/22 00:03:51;;;;;;;10.53;9.53;;;12.90;99.90;;;;;;5088691;28;20819;-61
2023/10/22 00:06:17;;;;;;;12.07;9.77;;;12.80;99.90;;;;;;5088870;28;20249;-63
2023/10/22 00:08:43;;;;;;;11.10;8.70;;;12.80;99.90;;;;;;5078875;28;20174;-62
2023/10/22 00:11:09;;;;;;;11.60;10.37;;;12.80;99.90;;;;;;5076507;28;20492;-63
2023/10/22 00:13:34;;;;;;;11.43;9.00;;;12.80;99.90;;;;;;5055369;28;20304;-64
2023/10/22 00:16:00;;;;;;;11.97;10.33;;;12.90;99.90;;;;;;5081402;28;20192;-63
2023/10/22 00:18:26;;;;;;;12.30;10.60;;;12.90;99.90;;;;;;5089860;28;20185;-62
2023/10/22 00:20:51;;;;;;;11.80;9.30;;;12.90;99.90;;;;;;5078634;28;20221;-63
2023/10/22 00:23:17;;;;;;;10.30;9.00;;;12.90;99.90;;;;;;5075286;28;20205;-63
2023/10/22 00:25:42;;;;;;;11.50;9.57;;;12.90;99.90;;;;;;5080917;28;20166;-63
2023/10/22 00:28:08;;;;;;;11.27;9.33;;;12.90;99.90;;;;;;5089465;28;20174;-62
2023/10/22 00:30:34;;;;;;;10.40;8.90;;;12.90;99.90;;;;;;5077706;28;20196;-63
2023/10/22 00:33:00;;;;;;;11.57;10.40;;;12.90;99.90;;;;;;5089957;28;20559;-63
2023/10/22 00:35:25;;;;;;;12.17;10.90;;;12.90;99.90;;;;;;5064620;28;20406;-62
2023/10/22 00:37:51;;;;;;;10.93;9.80;;;12.90;99.90;;;;;;5083364;28;20201;-62
2023/10/22 00:40:17;;;;;;;12.20;10.13;;;12.90;99.90;;;;;;5077513;28;20198;-63
2023/10/22 00:42:42;;;;;;;12.53;10.33;;;12.90;99.90;;;;;;5072847;28;20543;-62
2023/10/22 00:45:08;;;;;;;13.77;11.83;;;12.90;99.90;;;;;;5073901;28;20212;-64
2023/10/22 00:47:35;;;;;;;13.20;10.53;;;12.90;99.90;;;;;;5072940;28;20166;-63
2023/10/22 00:50:02;;;;;;;12.77;11.43;;;12.80;99.90;;;;;;5081075;28;20443;-61
2023/10/22 00:52:29;;;;;;;13.57;12.17;;;12.80;99.90;;;;;;5080643;28;20554;-61
2023/10/22 00:54:55;;;;;;;11.83;10.60;;;12.80;99.90;;;;;;5086786;28;20845;-60
2023/10/22 00:57:22;;;;;;;12.57;11.17;;;12.80;99.90;;;;;;5070277;28;20431;-59
2023/10/22 00:59:51;;;;;;;15.43;13.43;;;13.10;99.90;;;;;;5085956;28;20860;-60
2023/10/22 01:02:17;;;;;;;14.37;12.87;;;12.90;99.90;;;;;;5081512;28;20455;-61
2023/10/22 01:04:43;;;;;;;13.00;11.60;;;12.80;99.90;;;;;;5071151;28;20404;-63
2023/10/22 01:07:09;;;;;;;13.10;11.87;;;12.70;99.90;;;;;;5075849;28;20474;-63
2023/10/22 01:09:35;;;;;;;15.60;11.70;;;12.70;99.90;;;;;;5072199;28;20167;-62
2023/10/22 01:12:03;;;;;;;10.90;9.80;;;12.70;99.90;;;;;;5080575;28;20269;-64
2023/10/22 01:14:29;;;;;;;11.13;10.10;;;12.70;99.90;;;;;;5084455;28;20404;-64
2023/10/22 01:16:54;;;;;;;10.17;9.00;;;12.70;99.90;;;;;;5076521;28;20513;-62
2023/10/22 01:19:20;;;;;;;10.77;9.60;;;12.70;99.90;;;;;;5086528;28;20247;-64
2023/10/22 01:21:46;;;;;;;9.57;8.63;;;12.70;99.90;;;;;;5071923;28;20174;-63
2023/10/22 01:24:11;;;;;;;10.40;8.30;;;12.70;99.90;;;;;;5074743;28;20234;-64
2023/10/22 01:26:44;;;;;;;11.63;8.33;;;12.70;99.90;;;;;;5085809;28;20257;-62
2023/10/22 01:29:13;;;;;;;10.53;8.77;;;12.70;99.90;;;;;;5080582;28;20198;-61
2023/10/22 01:31:40;;;;;;;9.97;8.90;;;12.70;99.90;;;;;;5088434;28;20416;-62
2023/10/22 01:34:05;;;;;;;8.37;7.20;;;12.70;99.90;;;;;;5088048;28;20862;-64
2023/10/22 01:36:31;;;;;;;10.60;6.67;;;12.70;99.90;;;;;;5071625;28;20508;-63
2023/10/22 01:38:57;;;;;;;8.73;7.33;;;12.80;99.90;;;;;;5088098;28;20443;-62
2023/10/22 01:41:23;;;;;;;8.37;7.57;;;12.80;99.90;;;;;;5075050;28;20196;-62
2023/10/22 01:43:49;;;;;;;7.43;6.77;;;12.70;99.90;;;;;;5083071;28;20202;-62
2023/10/22 01:46:14;;;;;;;8.30;6.73;;;12.70;99.90;;;;;;5071496;28;20476;-62
2023/10/22 01:48:40;;;;;;;7.73;6.93;;;12.80;99.90;;;;;;5074406;28;20608;-60
2023/10/22 01:51:06;;;;;;;7.13;6.43;;;12.80;99.90;;;;;;5076545;28;20209;-64
2023/10/22 01:53:31;;;;;;;8.50;7.53;;;12.80;99.90;;;;;;5078183;28;20193;-63
2023/10/22 01:55:57;;;;;;;9.43;6.60;;;12.80;99.90;;;;;;5074400;28;20181;-62
2023/10/22 01:58:23;;;;;;;8.17;6.93;;;12.80;99.90;;;;;;5084676;28;20228;-64
2023/10/22 02:00:48;;;;;;;8.30;7.10;;;12.80;99.90;;;;;;5081413;28;20201;-63
2023/10/22 02:03:18;;;;;;;8.40;7.60;;;12.80;99.90;;;;;;5076860;28;20803;-62
2023/10/22 02:05:43;;;;;;;11.97;7.83;;;12.80;99.90;;;;;;5088238;28;20278;-62
2023/10/22 02:08:09;;;;;;;9.37;6.70;;;12.70;99.90;;;;;;5086378;28;21086;-63
2023/10/22 02:10:34;;;;;;;12.03;6.70;;;12.70;99.90;;;;;;5071829;28;20194;-62
2023/10/22 02:13:00;;;;;;;7.47;6.77;;;12.80;99.90;;;;;;5072310;28;20950;-64
2023/10/22 02:15:26;;;;;;;7.63;6.93;;;12.70;99.90;;;;;;5071646;28;20213;-62
2023/10/22 02:17:52;;;;;;;10.83;6.60;;;12.70;99.90;;;;;;5064793;28;20178;-64
2023/10/22 02:20:18;;;;;;;7.80;6.97;;;12.70;99.90;;;;;;5077298;28;20436;-63
2023/10/22 02:22:44;;;;;;;8.33;7.53;;;12.70;99.90;;;;;;5071860;28;21031;-65
2023/10/22 02:25:09;;;;;;;10.20;8.00;;;12.70;99.90;;;;;;5084081;28;20685;-63
2023/10/22 02:27:35;;;;;;;11.00;8.87;;;12.70;99.90;;;;;;5077811;28;20188;-63
2023/10/22 02:30:01;;;;;;;8.80;7.90;;;12.70;99.90;;;;;;5086916;28;20194;-63
2023/10/22 02:32:26;;;;;;;8.53;7.70;;;12.70;99.90;;;;;;5073953;28;20256;-64
2023/10/22 02:34:52;;;;;;;9.37;7.93;;;12.70;99.90;;;;;;5079828;28;20190;-64
2023/10/22 02:37:19;;;;;;;8.67;7.80;;;12.70;99.90;;;;;;5085479;28;20177;-62
2023/10/22 02:39:45;;;;;;;7.83;7.00;;;12.70;99.90;;;;;;5073444;28;20212;-63
2023/10/22 02:42:11;;;;;;;8.30;5.60;;;12.70;99.90;;;;;;5085553;28;20421;-63
2023/10/22 02:44:36;;;;;;;11.50;5.80;;;12.70;99.90;;;;;;5077415;28;20177;-62
2023/10/22 02:47:02;;;;;;;9.43;6.03;;;12.70;99.90;;;;;;5080358;28;20169;-62
2023/10/22 02:49:30;;;;;;;5.00;4.60;;;12.70;99.90;;;;;;5079422;28;20201;-61
2023/10/22 02:51:55;;;;;;;5.90;5.23;;;12.70;99.90;;;;;;5087205;28;20411;-63
2023/10/22 02:54:21;;;;;;;5.97;5.37;;;12.70;99.90;;;;;;5077396;28;20876;-62
2023/10/22 02:56:47;;;;;;;5.83;5.17;;;12.70;99.90;;;;;;5066298;28;20170;-63
2023/10/22 02:59:13;;;;;;;5.10;4.60;;;12.70;99.90;;;;;;5070295;28;20725;-63
2023/10/22 03:01:38;;;;;;;6.27;4.77;;;12.70;99.90;;;;;;5074130;28;20189;-61
2023/10/22 03:04:04;;;;;;;5.43;4.80;;;12.70;99.90;;;;;;5083300;28;20232;-61
2023/10/22 03:06:30;;;;;;;5.63;4.90;;;12.70;99.90;;;;;;5074053;28;20170;-62
2023/10/22 03:08:55;;;;;;;5.73;5.30;;;12.70;99.90;;;;;;5081609;28;20624;-63
2023/10/22 03:11:21;;;;;;;5.57;4.87;;;12.70;99.90;;;;;;5081029;28;20191;-62
2023/10/22 03:13:48;;;;;;;5.90;4.27;;;12.60;99.90;;;;;;5081055;28;20281;-67
2023/10/22 03:16:17;;;;;;;5.23;4.73;;;12.60;99.90;;;;;;5069233;28;20261;-63
2023/10/22 03:18:44;;;;;;;5.67;5.17;;;12.60;99.90;;;;;;5075046;28;20488;-63
2023/10/22 03:21:20;;;;;;;6.70;6.07;;;12.50;99.90;;;;;;5069007;28;20750;-62
2023/10/22 03:23:48;;;;;;;6.93;6.30;;;12.50;99.90;;;;;;5073806;28;20510;-63
2023/10/22 03:26:16;;;;;;;8.77;4.90;;;12.50;99.90;;;;;;5084909;28;20812;-60
2023/10/22 03:28:42;;;;;;;5.27;4.77;;;12.50;99.90;;;;;;5078708;28;20455;-62
2023/10/22 03:31:08;;;;;;;4.90;4.50;;;12.40;99.90;;;;;;5073758;28;20440;-63
2023/10/22 03:33:34;;;;;;;5.43;4.93;;;12.40;99.90;;;;;;5069940;28;20530;-61
2023/10/22 03:36:00;;;;;;;5.50;5.00;;;12.40;99.90;;;;;;5086345;28;20415;-62
2023/10/22 03:38:26;;;;;;;9.00;4.93;;;12.40;99.90;;;;;;5089468;28;20573;-61
2023/10/22 03:40:58;;;;;;;4.93;4.53;;;12.40;99.90;;;;;;5078735;28;20425;-60
2023/10/22 03:43:24;;;;;;;5.83;4.63;;;12.40;99.90;;;;;;5084983;28;20451;-63
2023/10/22 03:45:50;;;;;;;6.67;4.10;;;12.40;99.90;;;;;;5072883;28;20748;-62
2023/10/22 03:48:16;;;;;;;6.57;4.60;;;12.40;99.90;;;;;;5080272;28;20416;-62
2023/10/22 03:50:44;;;;;;;4.47;4.07;;;12.40;99.90;;;;;;5080013;28;20234;-60
2023/10/22 03:53:09;;;;;;;5.17;4.47;;;12.40;99.90;;;;;;5069048;28;20661;-59
2023/10/22 03:55:35;;;;;;;3.67;3.37;;;12.40;99.90;;;;;;5074111;28;20440;-62
2023/10/22 03:58:00;;;;;;;4.90;3.70;;;12.40;99.90;;;;;;5085764;28;20178;-63
2023/10/22 04:00:26;;;;;;;4.07;3.77;;;12.40;99.90;;;;;;5076863;28;20193;-62
2023/10/22 04:02:52;;;;;;;4.33;2.80;;;12.30;99.90;;;;;;5078580;28;20688;-62
2023/10/22 04:05:18;;;;;;;4.10;3.50;;;12.30;99.90;;;;;;5084483;28;20223;-58
2023/10/22 04:07:43;;;;;;;3.57;2.30;;;12.30;99.90;;;;;;5055109;28;20186;-62
2023/10/22 04:10:11;;;;;;;3.47;3.17;;;12.30;99.90;;;;;;5085575;28;20289;-62
2023/10/22 04:12:37;;;;;;;6.70;3.13;;;12.30;99.90;;;;;;5080621;28;20251;-60
2023/10/22 04:15:04;;;;;;;3.30;2.97;;;12.30;99.90;;;;;;5081565;28;20886;-62
2023/10/22 04:17:29;;;;;;;4.70;3.53;;;12.30;99.90;;;;;;5073366;28;20227;-61
2023/10/22 04:19:55;;;;;;;2.77;2.57;;;12.30;99.90;;;;;;5085656;28;20433;-64
2023/10/22 04:22:21;;;;;;;3.00;2.70;;;12.30;99.90;;;;;;5075901;28;20166;-63
2023/10/22 04:24:47;;;;;;;2.70;2.50;;;12.30;99.90;;;;;;5078961;28;20408;-62
2023/10/22 04:27:13;;;;;;;3.27;2.97;;;12.30;99.90;;;;;;5073630;28;20249;-64
2023/10/22 04:29:39;;;;;;;3.13;2.93;;;12.30;99.90;;;;;;5085744;28;20242;-60
2023/10/22 04:32:05;;;;;;;3.70;3.00;;;12.30;99.90;;;;;;5071989;28;20193;-60
2023/10/22 04:34:33;;;;;;;3.50;3.20;;;12.30;99.90;;;;;;5081166;28;20469;-63
2023/10/22 04:36:58;;;;;;;3.20;2.87;;;12.30;99.90;;;;;;5071143;28;20915;-60
2023/10/22 04:39:27;;;;;;;2.67;2.47;;;12.30;99.90;;;;;;5085687;28;20464;-62
2023/10/22 04:41:52;;;;;;;3.93;3.63;;;12.30;99.90;;;;;;5076092;28;20162;-63
2023/10/22 04:44:19;;;;;;;3.43;3.13;;;12.20;99.90;;;;;;5089066;28;20533;-61
2023/10/22 04:46:45;;;;;;;5.30;3.53;;;12.20;99.90;;;;;;5082926;28;20181;-59
2023/10/22 04:49:10;;;;;;;4.60;3.03;;;12.20;99.90;;;;;;5086213;28;20412;-61
2023/10/22 04:51:37;;;;;;;3.53;3.23;;;12.20;99.90;;;;;;5075827;28;20444;-61
2023/10/22 04:54:03;;;;;;;6.23;3.40;;;12.20;99.90;;;;;;5088423;28;20519;-63
2023/10/22 04:56:28;;;;;;;4.23;3.83;;;12.20;99.90;;;;;;5074224;28;20434;-63
2023/10/22 04:58:54;;;;;;;4.70;4.30;;;12.10;99.90;;;;;;5082316;28;20170;-61
2023/10/22 05:01:20;;;;;;;6.90;4.53;;;12.10;99.90;;;;;;5077314;28;20628;-63
2023/10/22 05:03:46;;;;;;;6.13;4.23;;;12.10;99.90;;;;;;5088781;28;20193;-62
2023/10/22 05:06:11;;;;;;;4.67;4.17;;;12.10;99.90;;;;;;5077528;28;20443;-64
2023/10/22 05:08:40;;;;;;;5.27;4.03;;;12.10;99.90;;;;;;5089854;28;20257;-62
2023/10/22 05:11:15;;;;;;;6.63;5.20;;;12.10;99.90;;;;;;5079104;28;20667;-62
2023/10/22 05:13:42;;;;;;;4.50;4.10;;;12.10;99.90;;;;;;5088919;28;20826;-61
2023/10/22 05:16:10;;;;;;;5.10;4.10;;;12.00;99.90;;;;;;5076788;28;20597;-62
2023/10/22 05:18:37;;;;;;;4.53;4.13;;;12.10;99.90;;;;;;5088608;28;20431;-64
2023/10/22 05:21:05;;;;;;;4.30;3.93;;;12.10;99.90;;;;;;5079597;28;20853;-63
2023/10/22 05:23:34;;;;;;;3.97;3.63;;;12.10;99.90;;;;;;5088500;28;20491;-63
2023/10/22 05:26:08;;;;;;;4.20;3.90;;;12.10;99.90;;;;;;5088304;28;20761;-64
2023/10/22 05:28:34;;;;;;;4.37;3.97;;;12.10;99.90;;;;;;5080554;28;20403;-64
2023/10/22 05:31:00;;;;;;;4.73;4.23;;;12.10;99.90;;;;;;5077294;28;20949;-63
2023/10/22 05:33:26;;;;;;;4.57;3.73;;;12.10;99.90;;;;;;5087955;28;20177;-62
2023/10/22 05:35:51;;;;;;;5.43;4.20;;;12.10;99.90;;;;;;5074819;28;20821;-63
2023/10/22 05:38:17;;;;;;;4.80;4.40;;;12.10;99.90;;;;;;5085767;28;20632;-63
2023/10/22 05:40:43;;;;;;;4.60;3.90;;;12.10;99.90;;;;;;5081127;28;20278;-63
2023/10/22 05:43:08;;;;;;;3.47;3.17;;;12.10;99.90;;;;;;5078283;28;20513;-64
2023/10/22 05:45:34;;;;;;;5.50;5.00;;;12.10;99.90;;;;;;5088267;28;20169;-63
2023/10/22 05:48:00;;;;;;;4.33;4.00;;;12.10;99.90;;;;;;5075319;28;20408;-63
2023/10/22 05:50:26;;;;;;;4.73;4.03;;;12.10;99.90;;;;;;5083385;28;20444;-63
2023/10/22 05:52:51;;;;;;;4.70;4.30;;;12.00;99.90;;;;;;5082061;28;20170;-64
2023/10/22 05:55:18;;;;;;;4.70;4.20;;;12.00;99.90;;;;;;5076465;28;20178;-64
2023/10/22 05:57:45;;;;;;;5.43;4.00;;;12.10;99.90;;;;;;5088042;28;20261;-63
2023/10/22 06:00:14;;;;;;;4.93;4.50;;;12.10;99.90;;;;;;5076814;28;20486;-64
2023/10/22 06:02:40;;;;;;;7.10;5.10;;;12.00;99.90;;;;;;5081824;28;20494;-64
2023/10/22 06:05:08;;;;;;;7.13;4.70;;;12.00;99.90;;;;;;5083663;28;20435;-63
2023/10/22 06:07:34;;;;;;;4.87;4.43;;;12.10;99.90;;;;;;5074710;28;20257;-64
2023/10/22 06:10:00;;;;;;;6.33;4.83;;;12.10;99.90;;;;;;5079602;28;21022;-63
2023/10/22 06:12:26;;;;;;;6.77;5.40;;;12.10;99.90;;;;;;5083875;28;20170;-64
2023/10/22 06:14:51;;;;;;;5.20;4.40;;;12.10;99.90;;;;;;5073854;28;20502;-62
2023/10/22 06:17:17;;;;;;;5.07;4.67;;;12.00;99.90;;;;;;5085348;28;20590;-64
2023/10/22 06:19:43;;;;;;;5.33;4.83;;;12.10;99.90;;;;;;5074209;28;20202;-63
2023/10/22 06:22:09;;;;;;;6.57;5.30;;;12.00;99.90;;;;;;5086058;28;20190;-63
2023/10/22 06:24:34;;;;;;;5.73;5.23;;;12.00;99.90;;;;;;5079474;28;20886;-62
2023/10/22 06:27:00;;;;;;;5.30;4.80;;;12.00;99.90;;;;;;5087177;28;20551;-62
2023/10/22 06:29:26;;;;;;;5.83;5.33;;;12.10;99.90;;;;;;5074499;28;20171;-64
2023/10/22 06:31:51;;;;;;;10.03;5.73;;;12.10;99.90;;;;;;5083500;28;20506;-63
2023/10/22 06:34:17;;;;;;;6.03;5.43;;;12.10;99.90;;;;;;5076666;28;20177;-64
2023/10/22 06:36:43;;;;;;;6.27;5.50;;;12.10;99.90;;;;;;5080966;28;20400;-62
2023/10/22 06:39:08;;;;;;;6.60;5.67;;;12.20;99.90;;;;;;5082191;28;20256;-64
2023/10/22 06:41:34;;;;;;;6.87;5.10;;;12.20;99.90;;;;;;5083873;28;20480;-64
2023/10/22 06:44:00;;;;;;;6.27;5.73;;;12.20;99.90;;;;;;5078657;28;20205;-65
2023/10/22 06:46:25;;;;;;;6.73;5.60;;;12.20;99.90;;;;;;5083168;28;20184;-64
2023/10/22 06:48:51;;;;;;;8.30;6.10;;;12.20;99.90;;;;;;5081197;28;20178;-63
2023/10/22 06:51:17;;;;;;;5.60;5.10;;;12.30;99.90;;;;;;5075802;28;20579;-63
2023/10/22 06:53:45;;;;;;;5.43;4.93;;;12.30;99.90;;;;;;5086881;28;20270;-63
2023/10/22 06:56:12;;;;;;;6.37;5.77;;;12.30;99.90;;;;;;5075312;28;20408;-63
2023/10/22 06:58:38;;;;;;;6.70;6.00;;;12.30;99.90;;;;;;5082762;28;20511;-64
2023/10/22 07:01:10;;;;;;;7.80;5.10;;;12.20;99.90;;;;;;5075515;28;20454;-64
2023/10/22 07:03:37;;;;;;;7.83;6.23;;;12.30;99.90;;;;;;5087904;28;20451;-62
2023/10/22 07:06:05;;;;;;;6.20;5.60;;;12.20;99.90;;;;;;5077866;28;20412;-63
2023/10/22 07:08:31;;;;;;;7.63;7.03;;;12.30;99.90;;;;;;5086566;28;20485;-63
2023/10/22 07:10:57;;;;;;;6.97;6.20;;;12.20;99.90;;;;;;5084788;28;20929;-63
2023/10/22 07:13:24;;;;;;;5.53;5.00;;;12.20;99.90;;;;;;5075399;28;20416;-63
2023/10/22 07:15:50;;;;;;;6.80;6.20;;;12.20;99.90;;;;;;5086714;28;20415;-63
2023/10/22 07:18:16;;;;;;;5.83;5.27;;;12.30;99.90;;;;;;5075991;28;20427;-60
2023/10/22 07:20:41;;;;;;;4.87;4.37;;;12.40;99.90;;;;;;5080692;28;20842;-61
2023/10/22 07:23:07;;;;;;;4.83;4.33;;;12.60;99.90;;;;;;5083224;28;20683;-63
2023/10/22 07:25:33;;;;;;;4.73;3.83;;;12.70;99.90;;;;;;5073711;28;20625;-63
2023/10/22 07:28:00;;;;;;;4.00;3.67;;;12.80;99.90;;;;;;5070368;28;20179;-64
2023/10/22 07:30:25;;;;;;;5.10;4.27;;;12.80;99.90;;;;;;5082687;28;20429;-65
2023/10/22 07:32:52;;;;;;;4.10;3.70;;;12.90;99.90;;;;;;5078561;28;20407;-62
2023/10/22 07:35:19;;;;;;;4.60;3.50;;;13.00;99.90;;;;;;5086586;28;20182;-63
2023/10/22 07:37:45;;;;;;;3.73;3.13;;;13.30;99.90;;;;;;5073612;28;20410;-61
2023/10/22 07:40:15;;;;;;;3.30;3.10;;;13.30;99.90;;;;;;5084834;28;20486;-61
2023/10/22 07:42:41;;;;;;;3.67;2.97;;;13.50;99.90;;;;;;5067673;28;20470;-63
2023/10/22 07:45:08;;;;;;;3.63;3.43;;;13.60;99.90;;;;;;5069257;28;20424;-61
2023/10/22 07:47:35;;;;;;;3.53;2.27;;;13.80;99.90;;;;;;5079629;28;20474;-63
2023/10/22 07:50:01;;;;;;;2.90;2.70;;;13.80;99.90;;;;;;5071513;28;20523;-63
2023/10/22 07:52:26;;;;;;;2.80;2.60;;;13.80;99.90;;;;;;5077025;28;20419;-64
2023/10/22 07:54:52;;;;;;;3.10;2.70;;;13.90;99.90;;;;;;5078396;28;20483;-63
2023/10/22 07:57:21;;;;;;;2.90;2.70;;;14.00;99.90;;;;;;5083331;28;20172;-64
2023/10/22 07:59:46;;;;;;;2.40;2.10;;;14.10;99.90;;;;;;5072724;28;20527;-63
2023/10/22 08:02:12;;;;;;;2.83;2.20;;;14.50;99.90;;;;;;5084427;28;20507;-63
2023/10/22 08:04:38;;;;;;;3.50;2.23;;;14.70;99.90;;;;;;5073339;28;20173;-64
2023/10/22 08:07:04;;;;;;;3.87;3.00;;;15.00;99.90;;;;;;5082388;28;20210;-63
2023/10/22 08:09:30;;;;;;;2.40;2.10;;;15.50;99.90;;;;;;5086116;28;20189;-62
2023/10/22 08:11:56;;;;;;;3.30;2.50;;;15.50;99.90;;;;;;5072510;28;20767;-62
2023/10/22 08:14:22;;;;;;;6.63;2.90;;;15.90;99.90;;;;;;5084005;28;20260;-63
2023/10/22 08:16:49;;;;;;;2.03;1.83;;;16.20;99.90;;;;;;5072250;28;20258;-67
2023/10/22 08:19:14;;;;;;;2.60;2.17;;;16.10;99.90;;;;;;5087218;28;20446;-64
2023/10/22 08:21:40;;;;;;;2.53;1.93;;;16.40;99.90;;;;;;5076402;28;20437;-63
2023/10/22 08:24:06;;;;;;;2.40;1.97;;;16.30;99.90;;;;;;5088679;28;20210;-63
2023/10/22 08:26:32;;;;;;;1.93;1.80;;;15.60;99.90;;;;;;5081057;28;20181;-63
2023/10/22 08:28:57;;;;;;;2.00;1.80;;;15.50;99.90;;;;;;5081445;28;20420;-60
2023/10/22 08:31:23;;;;;;;2.20;2.00;;;15.50;99.90;;;;;;5084429;28;20199;-61
2023/10/22 08:33:49;;;;;;;2.17;1.70;;;15.40;99.90;;;;;;5076110;28;20632;-62
2023/10/22 08:36:15;;;;;;;2.40;2.20;;;15.20;99.90;;;;;;5087328;28;20205;-62
2023/10/22 08:38:41;;;;;;;2.20;1.70;;;15.70;99.90;;;;;;5082386;28;20197;-63
2023/10/22 08:41:19;;;;;;;2.47;1.80;;;15.90;99.90;;;;;;5080033;28;20466;-64
2023/10/22 08:43:45;;;;;;;1.90;1.77;;;16.30;99.90;;;;;;5087514;28;20293;-61
2023/10/22 08:46:11;;;;;;;2.10;1.97;;;16.30;99.90;;;;;;5077752;28;20449;-60
2023/10/22 08:48:39;;;;;;;1.27;1.17;;;16.50;99.90;;;;;;5083904;28;20497;-62
2023/10/22 08:51:06;;;;;;;1.90;1.70;;;16.50;99.90;;;;;;5072152;28;20216;-63
2023/10/22 08:53:32;;;;;;;3.10;1.63;;;16.20;99.90;;;;;;5084864;28;20984;-61
2023/10/22 08:56:00;;;;;;;1.80;1.70;;;15.80;99.90;;;;;;5086118;28;20414;-59
2023/10/22 08:58:26;;;;;;;4.23;1.40;;;16.00;99.90;;;;;;5084964;28;20188;-64
2023/10/22 09:00:51;;;;;;;1.50;1.40;;;15.90;99.90;;;;;;5083211;28;20913;-67
2023/10/22 09:03:18;;;;;;;2.73;1.57;;;15.60;99.90;;;;;;5077543;28;20202;-63
2023/10/22 09:05:45;;;;;;;4.07;2.00;;;15.60;99.90;;;;;;5088691;28;20257;-58
2023/10/22 09:08:11;;;;;;;2.80;1.70;;;15.40;99.90;;;;;;5077365;28;20407;-64
2023/10/22 09:10:38;;;;;;;3.60;3.30;;;15.40;99.90;;;;;;5083573;28;20507;-65
2023/10/22 09:13:09;;;;;;;2.93;2.23;;;15.30;99.90;;;;;;5085014;28;20216;-62
2023/10/22 09:15:40;;;;;;;1.70;1.60;;;15.30;99.90;;;;;;5075489;28;20443;-62
2023/10/22 09:18:06;;;;;;;1.90;1.47;;;15.10;99.90;;;;;;5088128;28;20443;-61
2023/10/22 09:20:34;;;;;;;2.90;1.80;;;15.00;99.90;;;;;;5062078;28;20435;-61
2023/10/22 09:23:22;;;;;;;1.70;1.60;;;15.10;99.90;;;;;;5079946;28;20246;-64
2023/10/22 09:25:52;;;;;;;1.77;1.40;;;15.00;99.90;;;;;;5087710;28;20401;-66
2023/10/22 09:28:22;;;;;;;2.10;1.67;;;15.00;99.90;;;;;;5084596;28;20412;-64
2023/10/22 09:30:53;;;;;;;2.40;2.13;;;14.90;99.90;;;;;;5069440;28;20991;-67
2023/10/22 09:33:29;;;;;;;2.00;1.90;;;15.00;99.90;;;;;;5077248;28;20451;-64
2023/10/22 09:36:00;;;;;;;3.97;2.00;;;14.90;99.90;;;;;;5075474;28;20407;-64
2023/10/22 09:38:46;;;;;;;2.13;1.93;;;14.90;99.90;;;;;;5085125;28;20454;-64
2023/10/22 09:41:22;;;;;;;2.77;1.73;;;14.80;99.90;;;;;;5085797;28;20481;-66
2023/10/22 09:43:50;;;;;;;1.60;1.50;;;14.70;99.90;;;;;;5085458;28;20561;-63
2023/10/22 09:46:15;;;;;;;12.40;2.73;;;14.80;99.90;;;;;;5078529;28;20429;-66
2023/10/22 09:48:42;;;;;;;2.60;1.93;;;14.80;99.90;;;;;;5090747;28;20417;-69
2023/10/22 09:51:10;;;;;;;2.27;2.10;;;14.70;99.90;;;;;;5075323;28;20220;-63
2023/10/22 09:53:41;;;;;;;5.23;3.60;;;14.70;99.90;;;;;;5090667;28;20412;-66
2023/10/22 09:56:07;;;;;;;3.90;2.10;;;14.80;99.90;;;;;;5076729;28;20426;-63
2023/10/22 09:58:39;;;;;;;2.80;2.20;;;14.80;99.90;;;;;;5083389;28;20921;-63
2023/10/22 10:01:06;;;;;;;3.30;1.53;;;14.70;99.90;;;;;;5084199;28;20450;-60
2023/10/22 10:03:32;;;;;;;2.33;1.90;;;14.80;99.90;;;;;;5075074;28;20460;-62
2023/10/22 10:05:58;;;;;;;1.50;1.40;;;14.80;99.90;;;;;;5070277;28;20918;-62
2023/10/22 10:08:24;;;;;;;2.20;1.80;;;14.80;99.90;;;;;;5079495;28;20422;-64
2023/10/22 10:10:50;;;;;;;3.60;1.60;;;14.70;99.90;;;;;;5079858;28;20201;-63
2023/10/22 10:13:16;;;;;;;3.97;2.20;;;14.80;99.90;;;;;;5085541;28;20905;-62
2023/10/22 10:15:42;;;;;;;5.40;1.53;;;14.80;99.90;;;;;;5074265;28;20428;-62
2023/10/22 10:18:08;;;;;;;2.63;1.87;;;14.80;99.90;;;;;;5086671;28;20222;-63
2023/10/22 10:20:35;;;;;;;2.33;1.47;;;14.60;99.90;;;;;;5079516;28;20287;-61
2023/10/22 10:23:23;;;;;;;3.10;1.50;;;14.70;99.90;;;;;;5078688;28;20204;-61
2023/10/22 10:25:49;;;;;;;3.83;1.90;;;14.70;99.90;;;;;;5086554;28;20418;-62
2023/10/22 10:28:14;;;;;;;2.07;1.87;;;14.80;99.90;;;;;;5076612;28;20423;-62
2023/10/22 10:30:40;;;;;;;1.93;1.73;;;14.70;99.90;;;;;;5079532;28;20196;-59
2023/10/22 10:33:07;;;;;;;2.47;1.90;;;14.80;99.90;;;;;;5074328;28;20742;-60
2023/10/22 10:35:44;;;;;;;3.40;1.83;;;14.70;99.90;;;;;;5083855;28;20184;-62
2023/10/22 10:38:15;;;;;;;1.53;1.43;;;14.70;99.90;;;;;;5075472;28;20540;-63
2023/10/22 10:40:48;;;;;;;1.63;1.20;;;14.80;99.90;;;;;;5082403;28;20794;-62
2023/10/22 10:43:13;;;;;;;3.83;1.70;;;14.80;99.90;;;;;;5081065;28;20464;-63
2023/10/22 10:45:59;;;;;;;1.93;1.73;;;14.90;99.90;;;;;;5069014;28;20894;-63
2023/10/22 10:48:47;;;;;;;3.13;1.70;;;15.10;99.90;;;;;;5060125;28;20860;-61
2023/10/22 10:51:17;;;;;;;4.33;1.50;;;15.10;99.90;;;;;;5074139;28;20454;-64
2023/10/22 10:54:19;;;;;;;6.73;1.67;;;15.00;99.90;;;;;;5071632;28;20936;-63
2023/10/22 10:56:51;;;;;;;2.60;1.87;;;15.10;99.90;;;;;;4975950;28;20464;-61
2023/10/22 10:59:36;;;;;;;2.63;1.40;;;15.20;99.90;;;;;;5070281;28;20503;-60
2023/10/22 11:02:11;;;;;;;2.60;1.70;;;15.20;99.90;;;;;;5051289;28;20430;-62
2023/10/22 11:04:43;;;;;;;1.70;1.60;;;15.20;99.90;;;;;;5079314;28;20462;-61
2023/10/22 11:07:09;;;;;;;3.00;1.90;;;15.30;99.90;;;;;;5059926;28;20427;-61
2023/10/22 11:09:36;;;;;;;3.30;1.70;;;15.40;99.90;;;;;;5086770;28;21098;-60
2023/10/22 11:12:04;;;;;;;4.53;1.90;;;15.50;99.90;;;;;;5074018;28;20200;-61
2023/10/22 11:14:31;;;;;;;2.07;1.87;;;15.50;99.90;;;;;;5082072;28;20454;-63
2023/10/22 11:16:58;;;;;;;3.00;1.70;;;15.50;99.90;;;;;;5075308;28;20434;-63
2023/10/22 11:19:25;;;;;;;5.87;1.70;;;15.60;99.90;;;;;;5082232;28;20905;-62
2023/10/22 11:21:52;;;;;;;4.37;2.30;;;15.60;99.90;;;;;;5086420;28;20511;-61
2023/10/22 11:24:18;;;;;;;1.60;1.50;;;15.80;99.90;;;;;;5075899;28;20488;-60
2023/10/22 11:26:47;;;;;;;3.60;1.50;;;15.60;99.90;;;;;;5077774;28;20409;-61
2023/10/22 11:29:14;;;;;;;1.40;1.30;;;15.70;99.90;;;;;;5064372;28;20892;-63
2023/10/22 11:31:51;;;;;;;2.00;1.50;;;15.70;99.90;;;;;;5083572;28;20804;-62
2023/10/22 11:34:17;;;;;;;1.70;1.40;;;15.90;99.90;;;;;;5089057;28;21164;-59
2023/10/22 11:36:42;;;;;;;1.97;1.70;;;16.00;99.90;;;;;;5080055;28;20448;-62
2023/10/22 11:39:21;;;;;;;2.60;1.70;;;16.20;99.90;;;;;;5076615;28;20181;-62
2023/10/22 11:41:58;;;;;;;2.90;1.70;;;16.20;99.90;;;;;;5086603;28;20481;-61
2023/10/22 11:44:35;;;;;;;2.60;1.80;;;16.30;99.90;;;;;;5059324;28;20453;-60
2023/10/22 11:47:02;;;;;;;3.10;1.80;;;16.40;99.90;;;;;;5077278;28;20468;-62
2023/10/22 11:49:28;;;;;;;4.50;2.03;;;16.70;99.90;;;;;;5075620;28;20422;-60
2023/10/22 11:51:54;;;;;;;9.27;2.00;;;16.70;99.90;;;;;;5076391;28;20922;-61
2023/10/22 11:54:41;;;;;;;2.40;1.50;;;16.70;99.90;;;;;;5090662;28;20418;-63
2023/10/22 11:57:07;;;;;;;2.67;1.40;;;16.70;99.90;;;;;;5080224;28;20224;-59
2023/10/22 11:59:33;;;;;;;4.93;1.70;;;16.70;99.90;;;;;;5090010;28;20462;-61
2023/10/22 12:01:59;;;;;;;4.23;1.57;;;16.90;99.90;;;;;;5071619;28;20177;-63
2023/10/22 12:04:24;;;;;;;2.60;1.33;;;16.90;99.90;;;;;;5086305;28;20622;-64
2023/10/22 12:06:50;;;;;;;2.40;1.60;;;17.20;99.90;;;;;;5083837;28;20190;-63
2023/10/22 12:09:16;;;;;;;2.10;1.10;;;17.40;99.90;;;;;;5079428;28;20266;-66
2023/10/22 12:11:41;;;;;;;1.80;1.20;;;17.50;99.90;;;;;;5090507;28;20225;-65
2023/10/22 12:14:07;;;;;;;4.50;1.23;;;17.70;99.90;;;;;;5088820;28;20192;-66
2023/10/22 12:16:33;;;;;;;3.13;1.60;;;17.70;99.90;;;;;;5074316;28;20189;-61
2023/10/22 12:18:58;;;;;;;1.50;1.30;;;17.50;99.90;;;;;;5085547;28;20645;-66
2023/10/22 12:21:25;;;;;;;2.17;1.00;;;17.70;99.90;;;;;;5078007;28;20215;-60
2023/10/22 12:23:51;;;;;;;1.33;1.23;;;17.50;99.90;;;;;;5080391;28;20256;-63
2023/10/22 12:26:16;;;;;;;3.03;1.40;;;17.30;99.90;;;;;;5087580;28;21224;-63
2023/10/22 12:28:42;;;;;;;3.13;1.43;;;17.60;99.90;;;;;;5075201;28;20181;-63
2023/10/22 12:31:08;;;;;;;5.13;2.23;;;17.50;99.90;;;;;;5082292;28;20741;-62
2023/10/22 12:33:34;;;;;;;4.10;2.00;;;17.70;99.90;;;;;;5076779;28;20511;-60
2023/10/22 12:36:03;;;;;;;1.43;1.10;;;17.50;99.90;;;;;;5082482;28;20439;-63
2023/10/22 12:38:28;;;;;;;2.27;1.13;;;17.60;99.90;;;;;;5085610;28;20179;-63
2023/10/22 12:40:54;;;;;;;1.90;1.40;;;17.50;99.90;;;;;;5084314;28;20851;-63
2023/10/22 12:43:19;;;;;;;1.10;1.00;;;17.10;99.90;;;;;;5060145;28;20214;-59
2023/10/22 12:45:45;;;;;;;1.77;1.20;;;17.20;99.90;;;;;;5089738;28;20225;-63